Terminal Aerodrome Forecast
Issued by NWS

Home | Current Version | Previous Version | Text Only | Print | Product List | Glossary On
Versions: 1 2 3 4 5 6 7 8 9 10 11 12 13 14 15 16 17 18
000
FTUS44 KCRP 211700
TAFLRD
TAF
KLRD 211734Z 2118/2218 VRB04KT P6SM OVC011
      TEMPO 2118/2121 OVC008
     FM212100 16006KT P6SM SCT035
     FM220800 15004KT 5SM BR OVC009
     FM221000 VRB03KT 1SM BR OVC002
     FM221600 20007KT P6SM FEW005=

USA.gov is the U.S. government's official web portal to all federal, state and local government web resources and services.